sensor_id;sensor_type;location;lat;lon;timestamp;P1;durP1;ratioP1;P2;durP2;ratioP2
10412;SDS011;5252;42.602;23.386;2022-12-07T00:00:53;34.13;;;21.55;;
10412;SDS011;5252;42.602;23.386;2022-12-07T00:03:20;33.85;;;21.20;;
10412;SDS011;5252;42.602;23.386;2022-12-07T00:05:53;40.08;;;23.27;;
10412;SDS011;5252;42.602;23.386;2022-12-07T00:08:23;36.17;;;21.95;;
10412;SDS011;5252;42.602;23.386;2022-12-07T00:10:50;36.50;;;23.42;;
10412;SDS011;5252;42.602;23.386;2022-12-07T00:13:17;31.73;;;19.33;;
10412;SDS011;5252;42.602;23.386;2022-12-07T00:15:45;31.48;;;19.05;;
10412;SDS011;5252;42.602;23.386;2022-12-07T00:18:15;36.33;;;20.67;;
10412;SDS011;5252;42.602;23.386;2022-12-07T00:20:42;30.85;;;18.80;;
10412;SDS011;5252;42.602;23.386;2022-12-07T00:23:09;39.38;;;23.35;;
10412;SDS011;5252;42.602;23.386;2022-12-07T00:25:36;34.58;;;20.60;;
10412;SDS011;5252;42.602;23.386;2022-12-07T00:28:03;50.40;;;28.23;;
10412;SDS011;5252;42.602;23.386;2022-12-07T00:30:31;40.08;;;22.50;;
10412;SDS011;5252;42.602;23.386;2022-12-07T00:32:58;35.65;;;19.52;;
10412;SDS011;5252;42.602;23.386;2022-12-07T00:35:43;33.63;;;20.65;;
10412;SDS011;5252;42.602;23.386;2022-12-07T00:38:13;31.88;;;18.65;;
10412;SDS011;5252;42.602;23.386;2022-12-07T00:40:40;32.58;;;19.55;;
10412;SDS011;5252;42.602;23.386;2022-12-07T00:43:07;24.15;;;15.63;;
10412;SDS011;5252;42.602;23.386;2022-12-07T00:45:35;20.65;;;14.00;;
10412;SDS011;5252;42.602;23.386;2022-12-07T00:48:02;24.75;;;12.70;;
10412;SDS011;5252;42.602;23.386;2022-12-07T00:50:30;21.17;;;12.45;;
10412;SDS011;5252;42.602;23.386;2022-12-07T00:52:59;22.70;;;13.55;;
10412;SDS011;5252;42.602;23.386;2022-12-07T00:55:32;20.83;;;13.02;;
10412;SDS011;5252;42.602;23.386;2022-12-07T00:57:59;22.63;;;16.45;;
10412;SDS011;5252;42.602;23.386;2022-12-07T01:00:26;23.33;;;14.40;;
10412;SDS011;5252;42.602;23.386;2022-12-07T01:02:53;25.33;;;16.73;;
10412;SDS011;5252;42.602;23.386;2022-12-07T01:05:21;25.15;;;15.20;;
10412;SDS011;5252;42.602;23.386;2022-12-07T01:07:48;20.90;;;13.05;;
10412;SDS011;5252;42.602;23.386;2022-12-07T01:10:17;17.73;;;9.68;;
10412;SDS011;5252;42.602;23.386;2022-12-07T01:12:44;19.88;;;11.77;;
10412;SDS011;5252;42.602;23.386;2022-12-07T01:15:11;23.08;;;14.73;;
10412;SDS011;5252;42.602;23.386;2022-12-07T01:17:39;23.17;;;14.80;;
10412;SDS011;5252;42.602;23.386;2022-12-07T01:20:20;24.63;;;13.77;;
10412;SDS011;5252;42.602;23.386;2022-12-07T01:22:47;24.00;;;15.00;;
10412;SDS011;5252;42.602;23.386;2022-12-07T01:25:13;23.35;;;14.07;;
10412;SDS011;5252;42.602;23.386;2022-12-07T01:27:42;25.40;;;15.93;;
10412;SDS011;5252;42.602;23.386;2022-12-07T01:30:10;19.13;;;12.02;;
10412;SDS011;5252;42.602;23.386;2022-12-07T01:32:37;20.95;;;13.35;;
10412;SDS011;5252;42.602;23.386;2022-12-07T01:35:05;22.58;;;11.57;;
10412;SDS011;5252;42.602;23.386;2022-12-07T01:37:34;21.10;;;11.77;;
10412;SDS011;5252;42.602;23.386;2022-12-07T01:40:02;21.92;;;13.48;;
10412;SDS011;5252;42.602;23.386;2022-12-07T01:42:29;17.92;;;11.23;;
10412;SDS011;5252;42.602;23.386;2022-12-07T01:47:45;18.52;;;12.18;;
10412;SDS011;5252;42.602;23.386;2022-12-07T01:50:12;20.80;;;13.02;;
10412;SDS011;5252;42.602;23.386;2022-12-07T01:52:40;21.92;;;15.60;;
10412;SDS011;5252;42.602;23.386;2022-12-07T01:55:09;21.63;;;14.30;;
10412;SDS011;5252;42.602;23.386;2022-12-07T01:57:39;17.90;;;11.35;;
10412;SDS011;5252;42.602;23.386;2022-12-07T02:00:16;19.35;;;12.40;;
10412;SDS011;5252;42.602;23.386;2022-12-07T02:02:46;21.23;;;12.40;;
10412;SDS011;5252;42.602;23.386;2022-12-07T02:05:14;22.98;;;14.93;;
10412;SDS011;5252;42.602;23.386;2022-12-07T02:07:42;24.30;;;14.75;;
10412;SDS011;5252;42.602;23.386;2022-12-07T02:10:12;21.73;;;14.27;;
10412;SDS011;5252;42.602;23.386;2022-12-07T02:12:39;27.13;;;14.27;;
10412;SDS011;5252;42.602;23.386;2022-12-07T02:15:07;29.55;;;16.67;;
10412;SDS011;5252;42.602;23.386;2022-12-07T02:17:36;24.15;;;13.75;;
10412;SDS011;5252;42.602;23.386;2022-12-07T02:25:48;20.35;;;13.80;;
10412;SDS011;5252;42.602;23.386;2022-12-07T02:28:22;23.63;;;13.40;;
10412;SDS011;5252;42.602;23.386;2022-12-07T02:30:53;19.98;;;12.75;;
10412;SDS011;5252;42.602;23.386;2022-12-07T02:33:25;22.63;;;13.18;;
10412;SDS011;5252;42.602;23.386;2022-12-07T02:35:55;20.02;;;11.15;;
10412;SDS011;5252;42.602;23.386;2022-12-07T02:38:24;21.08;;;12.02;;
10412;SDS011;5252;42.602;23.386;2022-12-07T02:40:53;22.67;;;14.68;;
10412;SDS011;5252;42.602;23.386;2022-12-07T02:43:22;41.58;;;22.95;;
10412;SDS011;5252;42.602;23.386;2022-12-07T02:45:50;35.92;;;21.73;;
10412;SDS011;5252;42.602;23.386;2022-12-07T02:48:19;27.30;;;14.90;;
10412;SDS011;5252;42.602;23.386;2022-12-07T02:50:48;23.48;;;13.95;;
10412;SDS011;5252;42.602;23.386;2022-12-07T02:53:31;20.50;;;11.80;;
10412;SDS011;5252;42.602;23.386;2022-12-07T02:55:58;19.85;;;11.50;;
10412;SDS011;5252;42.602;23.386;2022-12-07T02:58:29;21.90;;;12.02;;
10412;SDS011;5252;42.602;23.386;2022-12-07T03:01:03;23.92;;;13.15;;
10412;SDS011;5252;42.602;23.386;2022-12-07T03:03:36;22.85;;;13.88;;
10412;SDS011;5252;42.602;23.386;2022-12-07T03:06:09;21.10;;;11.90;;
10412;SDS011;5252;42.602;23.386;2022-12-07T03:08:44;18.15;;;11.73;;
10412;SDS011;5252;42.602;23.386;2022-12-07T03:11:12;20.23;;;10.98;;
10412;SDS011;5252;42.602;23.386;2022-12-07T03:13:42;18.83;;;10.80;;
10412;SDS011;5252;42.602;23.386;2022-12-07T03:16:13;18.77;;;9.95;;
10412;SDS011;5252;42.602;23.386;2022-12-07T03:18:44;15.68;;;8.27;;
10412;SDS011;5252;42.602;23.386;2022-12-07T03:21:14;23.13;;;10.43;;
10412;SDS011;5252;42.602;23.386;2022-12-07T03:23:41;15.68;;;9.48;;
10412;SDS011;5252;42.602;23.386;2022-12-07T03:26:10;15.90;;;8.95;;
10412;SDS011;5252;42.602;23.386;2022-12-07T03:28:42;16.90;;;9.25;;
10412;SDS011;5252;42.602;23.386;2022-12-07T03:31:10;19.52;;;9.07;;
10412;SDS011;5252;42.602;23.386;2022-12-07T03:33:40;16.48;;;9.80;;
10412;SDS011;5252;42.602;23.386;2022-12-07T03:36:11;16.92;;;9.73;;
10412;SDS011;5252;42.602;23.386;2022-12-07T03:38:40;16.23;;;9.05;;
10412;SDS011;5252;42.602;23.386;2022-12-07T03:41:11;15.55;;;9.13;;
10412;SDS011;5252;42.602;23.386;2022-12-07T03:43:39;17.20;;;8.65;;
10412;SDS011;5252;42.602;23.386;2022-12-07T03:46:08;15.18;;;8.88;;
10412;SDS011;5252;42.602;23.386;2022-12-07T03:48:44;15.43;;;8.95;;
10412;SDS011;5252;42.602;23.386;2022-12-07T03:51:17;16.02;;;8.75;;
10412;SDS011;5252;42.602;23.386;2022-12-07T03:53:46;16.23;;;9.35;;
10412;SDS011;5252;42.602;23.386;2022-12-07T03:56:18;15.15;;;9.20;;
10412;SDS011;5252;42.602;23.386;2022-12-07T03:58:47;24.48;;;12.38;;
10412;SDS011;5252;42.602;23.386;2022-12-07T04:01:17;19.05;;;9.32;;
10412;SDS011;5252;42.602;23.386;2022-12-07T04:03:44;18.85;;;12.05;;
10412;SDS011;5252;42.602;23.386;2022-12-07T04:06:11;27.23;;;14.15;;
10412;SDS011;5252;42.602;23.386;2022-12-07T04:08:40;20.90;;;11.57;;
10412;SDS011;5252;42.602;23.386;2022-12-07T04:11:08;25.25;;;12.07;;
10412;SDS011;5252;42.602;23.386;2022-12-07T04:13:35;24.63;;;14.68;;
10412;SDS011;5252;42.602;23.386;2022-12-07T04:16:22;23.45;;;14.63;;
10412;SDS011;5252;42.602;23.386;2022-12-07T04:18:49;23.35;;;14.50;;
10412;SDS011;5252;42.602;23.386;2022-12-07T04:21:15;22.85;;;13.63;;
10412;SDS011;5252;42.602;23.386;2022-12-07T04:23:44;29.45;;;17.90;;
10412;SDS011;5252;42.602;23.386;2022-12-07T04:26:11;23.85;;;12.40;;
10412;SDS011;5252;42.602;23.386;2022-12-07T04:28:41;26.20;;;13.48;;
10412;SDS011;5252;42.602;23.386;2022-12-07T04:31:08;21.15;;;12.48;;
10412;SDS011;5252;42.602;23.386;2022-12-07T04:33:35;20.20;;;11.77;;
10412;SDS011;5252;42.602;23.386;2022-12-07T04:36:02;21.02;;;12.05;;
10412;SDS011;5252;42.602;23.386;2022-12-07T04:38:29;19.02;;;11.90;;
10412;SDS011;5252;42.602;23.386;2022-12-07T04:40:59;20.00;;;10.65;;
10412;SDS011;5252;42.602;23.386;2022-12-07T04:43:30;18.80;;;12.18;;
10412;SDS011;5252;42.602;23.386;2022-12-07T04:45:57;19.35;;;10.90;;
10412;SDS011;5252;42.602;23.386;2022-12-07T04:48:27;16.02;;;9.07;;
10412;SDS011;5252;42.602;23.386;2022-12-07T04:54:04;15.20;;;8.77;;
10412;SDS011;5252;42.602;23.386;2022-12-07T05:05:43;12.95;;;7.90;;
10412;SDS011;5252;42.602;23.386;2022-12-07T05:08:10;21.98;;;13.05;;
10412;SDS011;5252;42.602;23.386;2022-12-07T05:10:40;13.38;;;8.63;;
10412;SDS011;5252;42.602;23.386;2022-12-07T05:13:11;15.95;;;9.75;;
10412;SDS011;5252;42.602;23.386;2022-12-07T05:15:57;18.23;;;10.73;;
10412;SDS011;5252;42.602;23.386;2022-12-07T05:18:47;18.60;;;11.40;;
10412;SDS011;5252;42.602;23.386;2022-12-07T05:21:16;20.50;;;10.32;;
10412;SDS011;5252;42.602;23.386;2022-12-07T05:23:43;19.20;;;10.55;;
10412;SDS011;5252;42.602;23.386;2022-12-07T05:26:11;16.42;;;10.30;;
10412;SDS011;5252;42.602;23.386;2022-12-07T05:28:39;16.95;;;9.68;;
10412;SDS011;5252;42.602;23.386;2022-12-07T05:31:07;17.58;;;10.07;;
10412;SDS011;5252;42.602;23.386;2022-12-07T05:33:40;20.67;;;10.88;;
10412;SDS011;5252;42.602;23.386;2022-12-07T05:36:10;15.77;;;9.88;;
10412;SDS011;5252;42.602;23.386;2022-12-07T05:38:39;25.25;;;14.23;;
10412;SDS011;5252;42.602;23.386;2022-12-07T05:41:06;34.17;;;18.15;;
10412;SDS011;5252;42.602;23.386;2022-12-07T05:43:53;29.15;;;15.85;;
10412;SDS011;5252;42.602;23.386;2022-12-07T05:46:20;32.28;;;17.55;;
10412;SDS011;5252;42.602;23.386;2022-12-07T05:48:48;30.75;;;16.02;;
10412;SDS011;5252;42.602;23.386;2022-12-07T05:51:16;28.63;;;15.45;;
10412;SDS011;5252;42.602;23.386;2022-12-07T05:59:55;23.75;;;13.10;;
10412;SDS011;5252;42.602;23.386;2022-12-07T06:02:21;27.10;;;15.38;;
10412;SDS011;5252;42.602;23.386;2022-12-07T06:04:48;25.42;;;14.38;;
10412;SDS011;5252;42.602;23.386;2022-12-07T06:07:15;28.55;;;15.40;;
10412;SDS011;5252;42.602;23.386;2022-12-07T06:09:42;25.88;;;14.30;;
10412;SDS011;5252;42.602;23.386;2022-12-07T06:12:09;24.15;;;14.10;;
10412;SDS011;5252;42.602;23.386;2022-12-07T06:14:55;24.77;;;14.50;;
10412;SDS011;5252;42.602;23.386;2022-12-07T06:17:21;30.85;;;19.38;;
10412;SDS011;5252;42.602;23.386;2022-12-07T06:19:48;25.00;;;14.35;;
10412;SDS011;5252;42.602;23.386;2022-12-07T06:22:15;23.27;;;12.98;;
10412;SDS011;5252;42.602;23.386;2022-12-07T06:24:42;18.23;;;12.50;;
10412;SDS011;5252;42.602;23.386;2022-12-07T06:27:09;24.15;;;13.10;;
10412;SDS011;5252;42.602;23.386;2022-12-07T06:29:35;18.17;;;11.60;;
10412;SDS011;5252;42.602;23.386;2022-12-07T06:32:04;23.10;;;12.07;;
10412;SDS011;5252;42.602;23.386;2022-12-07T06:34:31;26.17;;;19.25;;
10412;SDS011;5252;42.602;23.386;2022-12-07T06:36:57;28.85;;;15.68;;
10412;SDS011;5252;42.602;23.386;2022-12-07T06:39:25;23.48;;;14.00;;
10412;SDS011;5252;42.602;23.386;2022-12-07T06:41:52;24.33;;;14.60;;
10412;SDS011;5252;42.602;23.386;2022-12-07T06:44:19;22.02;;;12.80;;
10412;SDS011;5252;42.602;23.386;2022-12-07T06:46:46;23.23;;;13.30;;
10412;SDS011;5252;42.602;23.386;2022-12-07T06:49:15;25.35;;;15.18;;
10412;SDS011;5252;42.602;23.386;2022-12-07T06:51:41;31.25;;;16.33;;
10412;SDS011;5252;42.602;23.386;2022-12-07T06:54:08;39.35;;;21.23;;
10412;SDS011;5252;42.602;23.386;2022-12-07T06:56:35;34.70;;;22.05;;
10412;SDS011;5252;42.602;23.386;2022-12-07T06:59:02;38.85;;;21.90;;
10412;SDS011;5252;42.602;23.386;2022-12-07T07:01:29;40.03;;;21.35;;
10412;SDS011;5252;42.602;23.386;2022-12-07T07:03:55;39.92;;;22.35;;
10412;SDS011;5252;42.602;23.386;2022-12-07T07:06:23;44.60;;;23.33;;
10412;SDS011;5252;42.602;23.386;2022-12-07T07:08:50;41.35;;;22.02;;
10412;SDS011;5252;42.602;23.386;2022-12-07T07:11:17;45.65;;;22.58;;
10412;SDS011;5252;42.602;23.386;2022-12-07T07:13:44;40.85;;;21.95;;
10412;SDS011;5252;42.602;23.386;2022-12-07T07:16:11;45.42;;;23.73;;
10412;SDS011;5252;42.602;23.386;2022-12-07T07:18:37;38.15;;;23.08;;
10412;SDS011;5252;42.602;23.386;2022-12-07T07:21:04;40.75;;;23.08;;
10412;SDS011;5252;42.602;23.386;2022-12-07T07:23:32;43.42;;;23.52;;
10412;SDS011;5252;42.602;23.386;2022-12-07T07:25:59;43.08;;;23.35;;
10412;SDS011;5252;42.602;23.386;2022-12-07T07:28:26;43.25;;;24.23;;
10412;SDS011;5252;42.602;23.386;2022-12-07T07:30:52;43.42;;;23.05;;
10412;SDS011;5252;42.602;23.386;2022-12-07T07:33:19;44.00;;;24.85;;
10412;SDS011;5252;42.602;23.386;2022-12-07T07:35:46;43.33;;;23.35;;
10412;SDS011;5252;42.602;23.386;2022-12-07T07:38:12;48.63;;;26.30;;
10412;SDS011;5252;42.602;23.386;2022-12-07T07:40:40;48.65;;;24.48;;
10412;SDS011;5252;42.602;23.386;2022-12-07T07:43:07;44.17;;;25.95;;
10412;SDS011;5252;42.602;23.386;2022-12-07T07:45:34;48.70;;;25.45;;
10412;SDS011;5252;42.602;23.386;2022-12-07T07:48:00;47.17;;;26.67;;
10412;SDS011;5252;42.602;23.386;2022-12-07T07:50:27;48.05;;;26.42;;
10412;SDS011;5252;42.602;23.386;2022-12-07T07:52:53;46.90;;;26.15;;
10412;SDS011;5252;42.602;23.386;2022-12-07T07:55:20;44.13;;;25.80;;
10412;SDS011;5252;42.602;23.386;2022-12-07T07:57:48;46.45;;;24.38;;
10412;SDS011;5252;42.602;23.386;2022-12-07T08:00:15;46.70;;;26.30;;
10412;SDS011;5252;42.602;23.386;2022-12-07T08:02:43;56.53;;;28.55;;
10412;SDS011;5252;42.602;23.386;2022-12-07T08:05:11;52.70;;;28.20;;
10412;SDS011;5252;42.602;23.386;2022-12-07T08:07:38;49.17;;;28.52;;
10412;SDS011;5252;42.602;23.386;2022-12-07T08:10:05;49.17;;;28.88;;
10412;SDS011;5252;42.602;23.386;2022-12-07T08:12:35;42.97;;;25.70;;
10412;SDS011;5252;42.602;23.386;2022-12-07T08:15:03;45.67;;;26.15;;
10412;SDS011;5252;42.602;23.386;2022-12-07T08:17:30;52.67;;;26.42;;
10412;SDS011;5252;42.602;23.386;2022-12-07T08:19:57;46.30;;;26.15;;
10412;SDS011;5252;42.602;23.386;2022-12-07T08:25:15;43.15;;;25.75;;
10412;SDS011;5252;42.602;23.386;2022-12-07T08:27:42;42.80;;;25.25;;
10412;SDS011;5252;42.602;23.386;2022-12-07T08:30:12;44.60;;;25.98;;
10412;SDS011;5252;42.602;23.386;2022-12-07T08:32:39;49.58;;;26.58;;
10412;SDS011;5252;42.602;23.386;2022-12-07T08:35:06;44.95;;;26.75;;
10412;SDS011;5252;42.602;23.386;2022-12-07T08:37:33;44.25;;;25.55;;
10412;SDS011;5252;42.602;23.386;2022-12-07T08:39:59;41.72;;;25.30;;
10412;SDS011;5252;42.602;23.386;2022-12-07T08:42:26;48.35;;;28.05;;
10412;SDS011;5252;42.602;23.386;2022-12-07T08:44:55;46.97;;;25.35;;
10412;SDS011;5252;42.602;23.386;2022-12-07T08:47:23;42.03;;;25.60;;
10412;SDS011;5252;42.602;23.386;2022-12-07T08:49:50;48.85;;;30.33;;
10412;SDS011;5252;42.602;23.386;2022-12-07T08:52:17;43.47;;;25.08;;
10412;SDS011;5252;42.602;23.386;2022-12-07T08:54:44;47.92;;;26.15;;
10412;SDS011;5252;42.602;23.386;2022-12-07T08:57:11;43.92;;;25.67;;
10412;SDS011;5252;42.602;23.386;2022-12-07T08:59:38;45.47;;;26.55;;
10412;SDS011;5252;42.602;23.386;2022-12-07T09:02:05;43.67;;;26.75;;
10412;SDS011;5252;42.602;23.386;2022-12-07T09:04:33;45.78;;;26.67;;
10412;SDS011;5252;42.602;23.386;2022-12-07T09:07:00;41.42;;;24.15;;
10412;SDS011;5252;42.602;23.386;2022-12-07T09:09:27;44.85;;;25.98;;
10412;SDS011;5252;42.602;23.386;2022-12-07T09:11:53;43.53;;;25.80;;
10412;SDS011;5252;42.602;23.386;2022-12-07T09:14:20;43.22;;;25.42;;
10412;SDS011;5252;42.602;23.386;2022-12-07T09:16:47;42.88;;;25.70;;
10412;SDS011;5252;42.602;23.386;2022-12-07T09:19:13;38.22;;;23.98;;
10412;SDS011;5252;42.602;23.386;2022-12-07T09:21:41;37.05;;;22.42;;
10412;SDS011;5252;42.602;23.386;2022-12-07T09:24:08;37.60;;;22.75;;
10412;SDS011;5252;42.602;23.386;2022-12-07T09:26:35;39.22;;;24.05;;
10412;SDS011;5252;42.602;23.386;2022-12-07T09:29:03;32.15;;;21.48;;
10412;SDS011;5252;42.602;23.386;2022-12-07T09:31:29;35.35;;;22.17;;
10412;SDS011;5252;42.602;23.386;2022-12-07T09:33:56;32.75;;;21.38;;
10412;SDS011;5252;42.602;23.386;2022-12-07T09:36:23;31.02;;;20.13;;
10412;SDS011;5252;42.602;23.386;2022-12-07T09:38:51;31.10;;;20.23;;
10412;SDS011;5252;42.602;23.386;2022-12-07T09:41:18;36.33;;;21.05;;
10412;SDS011;5252;42.602;23.386;2022-12-07T09:43:45;34.22;;;20.95;;
10412;SDS011;5252;42.602;23.386;2022-12-07T09:46:13;32.63;;;20.60;;
10412;SDS011;5252;42.602;23.386;2022-12-07T09:48:41;32.85;;;21.05;;
10412;SDS011;5252;42.602;23.386;2022-12-07T09:51:12;35.72;;;21.40;;
10412;SDS011;5252;42.602;23.386;2022-12-07T09:53:40;33.40;;;20.60;;
10412;SDS011;5252;42.602;23.386;2022-12-07T09:56:09;38.95;;;22.75;;
10412;SDS011;5252;42.602;23.386;2022-12-07T09:58:38;32.75;;;21.58;;
10412;SDS011;5252;42.602;23.386;2022-12-07T10:01:08;32.03;;;21.00;;
10412;SDS011;5252;42.602;23.386;2022-12-07T10:03:37;29.83;;;20.40;;
10412;SDS011;5252;42.602;23.386;2022-12-07T10:06:05;36.33;;;21.13;;
10412;SDS011;5252;42.602;23.386;2022-12-07T10:08:32;30.42;;;20.65;;
10412;SDS011;5252;42.602;23.386;2022-12-07T10:11:02;29.95;;;20.05;;
10412;SDS011;5252;42.602;23.386;2022-12-07T10:13:40;34.20;;;20.70;;
10412;SDS011;5252;42.602;23.386;2022-12-07T10:16:16;28.60;;;17.17;;
10412;SDS011;5252;42.602;23.386;2022-12-07T10:18:54;28.63;;;17.50;;
10412;SDS011;5252;42.602;23.386;2022-12-07T10:21:21;27.33;;;16.60;;
10412;SDS011;5252;42.602;23.386;2022-12-07T10:23:59;28.77;;;17.75;;
10412;SDS011;5252;42.602;23.386;2022-12-07T10:26:27;24.92;;;15.93;;
10412;SDS011;5252;42.602;23.386;2022-12-07T10:28:57;25.02;;;16.35;;
10412;SDS011;5252;42.602;23.386;2022-12-07T10:31:25;27.15;;;16.48;;
10412;SDS011;5252;42.602;23.386;2022-12-07T10:33:52;29.00;;;17.42;;
10412;SDS011;5252;42.602;23.386;2022-12-07T10:36:21;25.67;;;17.77;;
10412;SDS011;5252;42.602;23.386;2022-12-07T10:38:48;28.17;;;17.75;;
10412;SDS011;5252;42.602;23.386;2022-12-07T10:41:15;27.70;;;18.38;;
10412;SDS011;5252;42.602;23.386;2022-12-07T10:43:52;27.85;;;17.98;;
10412;SDS011;5252;42.602;23.386;2022-12-07T10:46:28;28.50;;;17.70;;
10412;SDS011;5252;42.602;23.386;2022-12-07T10:48:59;28.70;;;17.27;;
10412;SDS011;5252;42.602;23.386;2022-12-07T10:51:29;28.40;;;16.73;;
10412;SDS011;5252;42.602;23.386;2022-12-07T10:53:59;25.35;;;16.35;;
10412;SDS011;5252;42.602;23.386;2022-12-07T10:56:46;25.13;;;16.20;;
10412;SDS011;5252;42.602;23.386;2022-12-07T10:59:23;24.17;;;15.30;;
10412;SDS011;5252;42.602;23.386;2022-12-07T11:01:57;22.83;;;15.40;;
10412;SDS011;5252;42.602;23.386;2022-12-07T11:04:30;25.45;;;14.30;;
10412;SDS011;5252;42.602;23.386;2022-12-07T11:07:00;27.00;;;15.90;;
10412;SDS011;5252;42.602;23.386;2022-12-07T11:09:38;26.17;;;15.00;;
10412;SDS011;5252;42.602;23.386;2022-12-07T11:12:09;25.73;;;14.55;;
10412;SDS011;5252;42.602;23.386;2022-12-07T11:14:40;21.95;;;13.13;;
10412;SDS011;5252;42.602;23.386;2022-12-07T11:17:09;22.10;;;14.85;;
10412;SDS011;5252;42.602;23.386;2022-12-07T11:19:45;21.35;;;13.40;;
10412;SDS011;5252;42.602;23.386;2022-12-07T11:22:17;22.33;;;13.35;;
10412;SDS011;5252;42.602;23.386;2022-12-07T11:24:48;22.27;;;13.77;;
10412;SDS011;5252;42.602;23.386;2022-12-07T11:27:19;18.75;;;12.55;;
10412;SDS011;5252;42.602;23.386;2022-12-07T11:29:54;16.02;;;11.23;;
10412;SDS011;5252;42.602;23.386;2022-12-07T11:32:25;20.73;;;11.10;;
10412;SDS011;5252;42.602;23.386;2022-12-07T11:35:00;21.27;;;12.38;;
10412;SDS011;5252;42.602;23.386;2022-12-07T11:37:28;24.42;;;13.00;;
10412;SDS011;5252;42.602;23.386;2022-12-07T11:39:58;16.50;;;11.35;;
10412;SDS011;5252;42.602;23.386;2022-12-07T11:42:26;17.02;;;11.07;;
10412;SDS011;5252;42.602;23.386;2022-12-07T11:44:56;19.23;;;11.40;;
10412;SDS011;5252;42.602;23.386;2022-12-07T11:47:30;19.20;;;12.10;;
10412;SDS011;5252;42.602;23.386;2022-12-07T11:50:05;21.35;;;11.98;;
10412;SDS011;5252;42.602;23.386;2022-12-07T11:52:40;18.45;;;11.80;;
10412;SDS011;5252;42.602;23.386;2022-12-07T11:55:14;20.38;;;13.00;;
10412;SDS011;5252;42.602;23.386;2022-12-07T11:57:44;20.85;;;12.85;;
10412;SDS011;5252;42.602;23.386;2022-12-07T12:00:14;20.58;;;13.20;;
10412;SDS011;5252;42.602;23.386;2022-12-07T12:02:43;23.05;;;14.23;;
10412;SDS011;5252;42.602;23.386;2022-12-07T12:05:13;23.58;;;14.23;;
10412;SDS011;5252;42.602;23.386;2022-12-07T12:07:41;22.20;;;14.70;;
10412;SDS011;5252;42.602;23.386;2022-12-07T12:10:14;25.20;;;13.85;;
10412;SDS011;5252;42.602;23.386;2022-12-07T12:15:29;23.15;;;13.38;;
10412;SDS011;5252;42.602;23.386;2022-12-07T12:18:13;21.30;;;12.40;;
10412;SDS011;5252;42.602;23.386;2022-12-07T12:20:45;20.63;;;14.45;;
10412;SDS011;5252;42.602;23.386;2022-12-07T12:23:13;18.35;;;13.27;;
10412;SDS011;5252;42.602;23.386;2022-12-07T12:25:42;18.45;;;13.80;;
10412;SDS011;5252;42.602;23.386;2022-12-07T12:28:18;20.20;;;14.10;;
10412;SDS011;5252;42.602;23.386;2022-12-07T12:30:47;22.25;;;12.38;;
10412;SDS011;5252;42.602;23.386;2022-12-07T12:33:31;16.73;;;12.48;;
10412;SDS011;5252;42.602;23.386;2022-12-07T12:36:18;22.45;;;12.07;;
10412;SDS011;5252;42.602;23.386;2022-12-07T12:38:49;17.50;;;11.73;;
10412;SDS011;5252;42.602;23.386;2022-12-07T12:43:57;22.83;;;13.05;;
10412;SDS011;5252;42.602;23.386;2022-12-07T12:46:37;17.67;;;12.10;;
10412;SDS011;5252;42.602;23.386;2022-12-07T12:51:58;20.33;;;12.95;;
10412;SDS011;5252;42.602;23.386;2022-12-07T12:54:28;20.05;;;13.25;;
10412;SDS011;5252;42.602;23.386;2022-12-07T12:56:55;21.15;;;13.15;;
10412;SDS011;5252;42.602;23.386;2022-12-07T12:59:26;21.90;;;13.68;;
10412;SDS011;5252;42.602;23.386;2022-12-07T13:01:55;21.35;;;12.75;;
10412;SDS011;5252;42.602;23.386;2022-12-07T13:04:36;25.15;;;12.88;;
10412;SDS011;5252;42.602;23.386;2022-12-07T13:07:07;26.80;;;13.75;;
10412;SDS011;5252;42.602;23.386;2022-12-07T13:09:35;25.35;;;12.75;;
10412;SDS011;5252;42.602;23.386;2022-12-07T13:12:03;22.10;;;13.25;;
10412;SDS011;5252;42.602;23.386;2022-12-07T13:14:41;21.60;;;14.35;;
10412;SDS011;5252;42.602;23.386;2022-12-07T13:17:08;24.77;;;14.27;;
10412;SDS011;5252;42.602;23.386;2022-12-07T13:22:40;27.58;;;15.50;;
10412;SDS011;5252;42.602;23.386;2022-12-07T13:25:10;24.48;;;14.63;;
10412;SDS011;5252;42.602;23.386;2022-12-07T13:27:37;27.58;;;16.80;;
10412;SDS011;5252;42.602;23.386;2022-12-07T13:30:09;24.33;;;16.38;;
10412;SDS011;5252;42.602;23.386;2022-12-07T13:32:40;24.02;;;16.13;;
10412;SDS011;5252;42.602;23.386;2022-12-07T13:37:49;25.40;;;16.52;;
10412;SDS011;5252;42.602;23.386;2022-12-07T13:40:17;27.70;;;16.17;;
10412;SDS011;5252;42.602;23.386;2022-12-07T13:42:44;30.02;;;16.10;;
10412;SDS011;5252;42.602;23.386;2022-12-07T13:45:19;27.60;;;16.42;;
10412;SDS011;5252;42.602;23.386;2022-12-07T13:47:47;24.75;;;14.43;;
10412;SDS011;5252;42.602;23.386;2022-12-07T13:50:21;28.17;;;14.40;;
10412;SDS011;5252;42.602;23.386;2022-12-07T13:52:50;27.25;;;14.98;;
10412;SDS011;5252;42.602;23.386;2022-12-07T13:55:17;25.10;;;14.35;;
10412;SDS011;5252;42.602;23.386;2022-12-07T13:57:44;24.60;;;16.02;;
10412;SDS011;5252;42.602;23.386;2022-12-07T15:09:19;20.27;;;11.20;;
10412;SDS011;5252;42.602;23.386;2022-12-07T15:11:46;17.77;;;10.90;;
10412;SDS011;5252;42.602;23.386;2022-12-07T15:14:13;17.15;;;11.07;;
10412;SDS011;5252;42.602;23.386;2022-12-07T15:16:40;17.67;;;11.25;;
10412;SDS011;5252;42.602;23.386;2022-12-07T15:19:10;16.48;;;10.50;;
10412;SDS011;5252;42.602;23.386;2022-12-07T15:21:37;22.23;;;12.65;;
10412;SDS011;5252;42.602;23.386;2022-12-07T15:24:05;21.27;;;11.95;;
10412;SDS011;5252;42.602;23.386;2022-12-07T15:26:33;26.48;;;14.38;;
10412;SDS011;5252;42.602;23.386;2022-12-07T15:29:00;22.80;;;14.50;;
10412;SDS011;5252;42.602;23.386;2022-12-07T15:31:26;118.55;;;50.58;;
10412;SDS011;5252;42.602;23.386;2022-12-07T15:33:53;32.80;;;17.25;;
10412;SDS011;5252;42.602;23.386;2022-12-07T15:36:20;38.30;;;18.98;;
10412;SDS011;5252;42.602;23.386;2022-12-07T15:38:47;23.25;;;15.18;;
10412;SDS011;5252;42.602;23.386;2022-12-07T15:41:14;29.77;;;15.82;;
10412;SDS011;5252;42.602;23.386;2022-12-07T15:43:42;22.00;;;11.80;;
10412;SDS011;5252;42.602;23.386;2022-12-07T15:46:29;20.73;;;12.43;;
10412;SDS011;5252;42.602;23.386;2022-12-07T15:48:55;28.25;;;14.18;;
10412;SDS011;5252;42.602;23.386;2022-12-07T15:51:22;26.13;;;14.65;;
10412;SDS011;5252;42.602;23.386;2022-12-07T15:53:48;18.95;;;12.07;;
10412;SDS011;5252;42.602;23.386;2022-12-07T15:56:15;22.42;;;12.80;;
10412;SDS011;5252;42.602;23.386;2022-12-07T15:58:43;24.48;;;15.20;;
10412;SDS011;5252;42.602;23.386;2022-12-07T16:01:10;17.83;;;10.07;;
10412;SDS011;5252;42.602;23.386;2022-12-07T16:03:37;18.95;;;10.95;;
10412;SDS011;5252;42.602;23.386;2022-12-07T16:06:04;28.92;;;17.92;;
10412;SDS011;5252;42.602;23.386;2022-12-07T16:08:31;16.25;;;10.63;;
10412;SDS011;5252;42.602;23.386;2022-12-07T16:10:57;20.67;;;11.55;;
10412;SDS011;5252;42.602;23.386;2022-12-07T16:13:24;31.58;;;18.33;;
10412;SDS011;5252;42.602;23.386;2022-12-07T16:15:52;20.70;;;12.43;;
10412;SDS011;5252;42.602;23.386;2022-12-07T16:18:19;28.52;;;14.57;;
10412;SDS011;5252;42.602;23.386;2022-12-07T16:20:47;25.45;;;14.52;;
10412;SDS011;5252;42.602;23.386;2022-12-07T16:23:14;30.33;;;15.20;;
10412;SDS011;5252;42.602;23.386;2022-12-07T16:25:41;24.58;;;15.75;;
10412;SDS011;5252;42.602;23.386;2022-12-07T16:28:07;28.67;;;16.95;;